X  Schlie├čen METAR Luftfahrt Wetterdaten     EHGG Eelde Airport
Temperatur
52°F Temperatur
48°F Taupunkt
88% Feuchtigkeit



Wind
9 MPS
14 KM/S
4 M/S
8 KTS



30°
NNO
Aktuelle Wetterlage

Meistens vereinzelte Wolken Meistens vereinzelte Wolken
Luftdruck 1019.92 (hPa) - 30.12 (inHg)
Sichtweite 6.2 (Meile) - 10 (Km)
Flughafen
Flughafen Code EHGG

Position : Eelde Airport
Entfernung: 40 (mi)

Metar:
EHGG 080025Z AUTO 03008KT 330V060 9999 SCT009/// OVC010/// 11/09 Q1020

Zeit: 08-06-2023 02:25 CEST